Giberson, Indiana
Current Conditions -  °F | °C
As of 3:53 AM on Friday 28 Nov 2014 (Local Time) from KBMG Reporting Station
Broken Clouds Broken Clouds  
Wind Chill: 20°   Ceiling: 9500
Heat Index: 20°   Visibility: 8mi
Dew Point: 17°   Wind: 3mph
Humidity: 89%   Direction: 290°WNW
Pressure: 30.41"   Gusts: NA
Location:  38.8737°N, 86.4563°W
Report Text: KBMG 280853Z AUTO 29003KT 8SM BKN095 BKN110 M07/M08 A3041 RMK AO2 SLP307 I3000 T10671083 53001
Loading
Personal Weather Stations






























Interactive Weather Map New forecast layout! Learn more

10-Day Weather Forecast

Advertisements
Track Severe Weather on mobile